Time;durP1;ratioP1;P1;durP2;ratioP2;P2;SDS_P1;SDS_P2;PMS_P1;PMS_P2;Temp;Humidity;BMP_temperature;BMP_pressure;BME280_temperature;BME280_humidity;BME280_pressure;Samples;Min_cycle;Max_cycle;Signal;HPM_P1;HPM_P2
2022/12/14 00:01:13;;;;;;;;;;;;;;;1.94;48.36;99365.69;4783235;29;6984;-73
2022/12/14 00:03:38;;;;;;;;;;;;;;;1.96;48.08;99371.72;4762297;29;6977;-73
2022/12/14 00:06:21;;;;;;;;;;;;;;;1.97;48.15;99354.91;4784963;29;6773;-73
2022/12/14 00:08:49;;;;;;;;;;;;;;;1.99;48.34;99340.72;4783731;29;6801;-72
2022/12/14 00:11:18;;;;;;;;;;;;;;;2.02;48.46;99338.38;4784153;29;6938;-72
2022/12/14 00:13:44;;;;;;;;;;;;;;;2.04;47.96;99337.72;4798330;29;6841;-73
2022/12/14 00:16:15;;;;;;;;;;;;;;;2.07;47.69;99330.31;4788998;29;6798;-73
2022/12/14 00:18:41;;;;;;;;;;;;;;;2.10;47.75;99323.72;4785368;29;6821;-74
2022/12/14 00:21:12;;;;;;;;;;;;;;;2.13;47.68;99328.97;4773035;29;6992;-73
2022/12/14 00:23:40;;;;;;;;;;;;;;;2.16;47.49;99317.38;4773993;29;6789;-74
2022/12/14 00:26:25;;;;;;;;;;;;;;;2.20;47.97;99321.88;4802158;29;6801;-73
2022/12/14 00:28:53;;;;;;;;;;;;;;;2.21;48.18;99313.50;4785879;29;7542;-73
2022/12/14 00:31:21;;;;;;;;;;;;;;;2.24;47.48;99305.25;4784624;29;7689;-73
2022/12/14 00:33:47;;;;;;;;;;;;;;;2.25;47.30;99309.53;4780774;29;6861;-74
2022/12/14 00:36:13;;;;;;;;;;;;;;;2.25;47.43;99311.16;4798841;29;7309;-73
2022/12/14 00:38:39;;;;;;;;;;;;;;;2.28;47.79;99308.84;4786529;29;6972;-72
2022/12/14 00:41:06;;;;;;;;;;;;;;;2.29;48.05;99313.13;4803001;29;6798;-73
2022/12/14 00:43:31;;;;;;;;;;;;;;;2.30;47.77;99303.09;4784177;29;6817;-72
2022/12/14 00:45:57;;;;;;;;;;;;;;;2.31;48.10;99304.84;4789434;29;7839;-72
2022/12/14 00:48:24;;;;;;;;;;;;;;;2.32;47.40;99301.56;4790728;29;8349;-74
2022/12/14 00:50:52;;;;;;;;;;;;;;;2.34;47.37;99294.94;4806987;29;7004;-73
2022/12/14 00:53:18;;;;;;;;;;;;;;;2.34;47.33;99299.13;4798354;29;6974;-73
2022/12/14 00:55:46;;;;;;;;;;;;;;;2.35;47.29;99291.63;4786448;29;6789;-72
2022/12/14 00:58:15;;;;;;;;;;;;;;;2.36;47.09;99287.44;4787492;29;7149;-73
2022/12/14 01:00:43;;;;;;;;;;;;;;;2.36;47.74;99280.72;4781091;29;6810;-73
2022/12/14 01:03:10;;;;;;;;;;;;;;;2.38;47.37;99285.00;4786618;29;6801;-72
2022/12/14 01:05:37;;;;;;;;;;;;;;;2.37;47.93;99271.50;4801808;29;6800;-72
2022/12/14 01:08:05;;;;;;;;;;;;;;;2.36;47.62;99268.09;4784786;29;6889;-73
2022/12/14 01:10:30;;;;;;;;;;;;;;;2.38;47.24;99262.25;4782170;29;6797;-73
2022/12/14 01:12:56;;;;;;;;;;;;;;;2.35;47.47;99261.28;4805007;29;6777;-73
2022/12/14 01:15:22;;;;;;;;;;;;;;;2.36;47.75;99262.13;4795042;29;6953;-72
2022/12/14 01:17:51;;;;;;;;;;;;;;;2.35;47.86;99270.50;4784405;29;6781;-73
2022/12/14 01:20:16;;;;;;;;;;;;;;;2.34;47.44;99264.59;4768561;29;7130;-73
2022/12/14 01:22:42;;;;;;;;;;;;;;;2.35;47.85;99273.03;4782603;29;8509;-73
2022/12/14 01:25:08;;;;;;;;;;;;;;;2.36;47.38;99259.63;4800065;29;6821;-73
2022/12/14 01:27:34;;;;;;;;;;;;;;;2.35;47.27;99256.22;4801570;29;6793;-72
2022/12/14 01:30:01;;;;;;;;;;;;;;;2.36;47.30;99259.63;4804309;29;6797;-73
2022/12/14 01:32:26;;;;;;;;;;;;;;;2.33;46.81;99255.25;4766129;29;6983;-74
2022/12/14 01:34:52;;;;;;;;;;;;;;;2.34;47.04;99257.00;4805164;29;6934;-73
2022/12/14 01:37:17;;;;;;;;;;;;;;;2.31;47.56;99251.75;4799385;29;6845;-73
2022/12/14 01:39:43;;;;;;;;;;;;;;;2.28;46.99;99248.16;4792893;29;6944;-72
2022/12/14 01:42:14;;;;;;;;;;;;;;;2.26;47.34;99252.22;4784016;29;6769;-73
2022/12/14 01:44:43;;;;;;;;;;;;;;;2.20;47.61;99250.19;4787022;29;7292;-73
2022/12/14 01:47:39;;;;;;;;;;;;;;;2.17;46.77;99255.06;4801876;29;6789;-73
2022/12/14 01:50:32;;;;;;;;;;;;;;;2.09;46.85;99254.59;4784411;29;6813;-73
2022/12/14 01:53:06;;;;;;;;;;;;;;;2.03;46.97;99244.09;4785868;29;6969;-73
2022/12/14 01:55:45;;;;;;;;;;;;;;;1.99;47.20;99249.75;4779449;29;6988;-75
2022/12/14 01:58:24;;;;;;;;;;;;;;;1.96;46.81;99249.53;4767306;29;7003;-72
2022/12/14 02:00:54;;;;;;;;;;;;;;;1.93;47.07;99252.72;4782953;29;7449;-74
2022/12/14 02:03:29;;;;;;;;;;;;;;;1.92;47.19;99245.91;4797176;29;6801;-72
2022/12/14 02:06:12;;;;;;;;;;;;;;;1.91;47.04;99252.66;4798371;29;7216;-72
2022/12/14 02:08:40;;;;;;;;;;;;;;;1.91;47.36;99245.06;4800910;29;6810;-72
2022/12/14 02:11:06;;;;;;;;;;;;;;;1.92;47.48;99245.91;4785330;29;7080;-73
2022/12/14 02:13:37;;;;;;;;;;;;;;;1.93;47.32;99243.50;4786657;29;7158;-74
2022/12/14 02:16:04;;;;;;;;;;;;;;;1.95;47.55;99243.59;4783166;29;7929;-73
2022/12/14 02:18:31;;;;;;;;;;;;;;;1.96;47.55;99247.00;4792014;29;7101;-73
2022/12/14 02:21:15;;;;;;;;;;;;;;;1.97;47.91;99234.47;4784735;29;6934;-73
2022/12/14 02:23:55;;;;;;;;;;;;;;;1.98;47.17;99235.31;4794040;29;7177;-73
2022/12/14 02:26:59;;;;;;;;;;;;;;;1.99;47.23;99230.38;4804770;29;6797;-72
2022/12/14 02:30:06;;;;;;;;;;;;;;;2.01;47.18;99238.06;4768548;29;6830;-72
2022/12/14 02:32:57;;;;;;;;;;;;;;;2.01;47.92;99238.94;4798261;29;7004;-73
2022/12/14 02:35:43;;;;;;;;;;;;;;;2.03;47.95;99237.41;4788708;29;6805;-73
2022/12/14 02:38:35;;;;;;;;;;;;;;;2.05;47.14;99234.94;4803787;29;7061;-72
2022/12/14 02:41:37;;;;;;;;;;;;;;;2.07;47.61;99221.63;4800224;29;7239;-73
2022/12/14 02:44:16;;;;;;;;;;;;;;;2.08;47.35;99209.88;4795746;29;7107;-74
2022/12/14 02:46:50;;;;;;;;;;;;;;;2.10;47.68;99202.38;4788470;29;6817;-74
2022/12/14 02:49:51;;;;;;;;;;;;;;;2.14;47.19;99209.38;4797136;29;7225;-73
2022/12/14 02:52:43;;;;;;;;;;;;;;;2.14;47.29;99201.81;4781184;29;7013;-72
2022/12/14 02:55:21;;;;;;;;;;;;;;;2.14;47.52;99197.59;4786007;29;6793;-72
2022/12/14 02:58:21;;;;;;;;;;;;;;;2.15;48.05;99190.91;4782548;29;6970;-74
2022/12/14 03:00:48;;;;;;;;;;;;;;;2.16;47.33;99197.72;4795744;29;7210;-74
2022/12/14 03:03:15;;;;;;;;;;;;;;;2.18;47.31;99203.72;4785308;29;6813;-72
2022/12/14 03:05:40;;;;;;;;;;;;;;;2.19;47.79;99202.94;4776704;29;7279;-73
2022/12/14 03:08:13;;;;;;;;;;;;;;;2.21;47.47;99203.91;4782183;29;6789;-72
2022/12/14 03:10:54;;;;;;;;;;;;;;;2.23;47.89;99207.44;4784823;29;6809;-74
2022/12/14 03:13:57;;;;;;;;;;;;;;;2.24;47.84;99204.13;4799725;29;7899;-74
2022/12/14 03:16:58;;;;;;;;;;;;;;;2.25;46.98;99202.44;4796929;29;7171;-73
2022/12/14 03:19:36;;;;;;;;;;;;;;;2.25;47.24;99198.28;4787703;29;6829;-73
2022/12/14 03:22:24;;;;;;;;;;;;;;;2.25;47.03;99195.75;4773572;29;6842;-73
2022/12/14 03:24:59;;;;;;;;;;;;;;;2.26;47.55;99205.06;4785941;29;7083;-73
2022/12/14 03:27:37;;;;;;;;;;;;;;;2.26;47.11;99199.13;4787278;29;6809;-73
2022/12/14 03:30:14;;;;;;;;;;;;;;;2.26;47.84;99205.06;4787161;29;7222;-73
2022/12/14 03:32:52;;;;;;;;;;;;;;;2.24;48.04;99191.47;4783111;29;12372;-72
2022/12/14 03:35:41;;;;;;;;;;;;;;;2.25;47.36;99188.16;4798085;29;7024;-73
2022/12/14 03:38:27;;;;;;;;;;;;;;;2.22;47.90;99180.38;4798956;29;7049;-73
2022/12/14 03:41:30;;;;;;;;;;;;;;;2.22;48.11;99175.31;4783650;29;6817;-72
2022/12/14 03:44:37;;;;;;;;;;;;;;;2.19;47.95;99165.03;4798602;29;6825;-73
2022/12/14 03:47:39;;;;;;;;;;;;;;;2.20;48.12;99162.59;4781233;29;6829;-72
2022/12/14 03:50:12;;;;;;;;;;;;;;;2.20;47.35;99172.72;4805027;29;6829;-70
2022/12/14 03:53:16;;;;;;;;;;;;;;;2.21;48.10;99178.63;4787874;29;6794;-70
2022/12/14 03:56:08;;;;;;;;;;;;;;;2.24;48.26;99171.25;4758660;29;6881;-70
2022/12/14 03:59:06;;;;;;;;;;;;;;;2.24;47.70;99171.25;4794663;29;6829;-72
2022/12/14 04:01:54;;;;;;;;;;;;;;;2.26;48.07;99166.25;4776853;29;7313;-71
2022/12/14 04:04:59;;;;;;;;;;;;;;;2.28;48.13;99154.63;4797107;29;7008;-71
2022/12/14 04:07:42;;;;;;;;;;;;;;;2.26;47.81;99151.97;4790841;29;6983;-71
2022/12/14 04:19:12;;;;;;;;;;;;;;;2.27;47.75;99133.50;4793818;29;6801;-71
2022/12/14 04:21:48;;;;;;;;;;;;;;;2.27;47.76;99123.38;4787574;29;6813;-71
2022/12/14 04:27:43;;;;;;;;;;;;;;;2.28;47.94;99124.28;4791480;29;6814;-71
2022/12/14 04:30:11;;;;;;;;;;;;;;;2.29;48.44;99114.22;4782850;29;8080;-71
2022/12/14 04:32:51;;;;;;;;;;;;;;;2.31;47.72;99111.81;4785691;29;12978;-71
2022/12/14 04:35:41;;;;;;;;;;;;;;;2.30;47.37;99115.13;4800583;29;6809;-71
2022/12/14 04:38:19;;;;;;;;;;;;;;;2.30;48.15;99117.66;4789070;29;7016;-71
2022/12/14 04:40:55;;;;;;;;;;;;;;;2.31;48.40;99116.84;4801801;29;6817;-71
2022/12/14 04:43:28;;;;;;;;;;;;;;;2.32;48.30;99116.97;4768727;29;7051;-71
2022/12/14 04:46:10;;;;;;;;;;;;;;;2.34;47.88;99112.88;4790393;29;6801;-71
2022/12/14 04:48:47;;;;;;;;;;;;;;;2.35;48.10;99111.19;4782801;29;6817;-71
2022/12/14 04:51:26;;;;;;;;;;;;;;;2.37;47.49;99107.13;4787740;29;6805;-71
2022/12/14 04:54:00;;;;;;;;;;;;;;;2.38;47.60;99105.44;4792982;29;7004;-71
2022/12/14 04:56:45;;;;;;;;;;;;;;;2.39;47.54;99105.56;4792544;29;6809;-71
2022/12/14 04:59:11;;;;;;;;;;;;;;;2.41;47.77;99108.16;4800591;29;6962;-71
2022/12/14 05:01:55;;;;;;;;;;;;;;;2.42;48.49;99104.88;4789916;29;6833;-71
2022/12/14 05:04:40;;;;;;;;;;;;;;;2.43;47.48;99109.16;4798176;29;7013;-71
2022/12/14 05:07:57;;;;;;;;;;;;;;;2.44;48.35;99099.09;4795992;29;6805;-71
2022/12/14 05:10:36;;;;;;;;;;;;;;;2.45;48.19;99090.72;4812618;29;6813;-71
2022/12/14 05:13:19;;;;;;;;;;;;;;;2.47;47.48;99096.78;4806343;29;7103;-71
2022/12/14 05:15:52;;;;;;;;;;;;;;;2.49;47.89;99092.66;4794446;29;6883;-71
2022/12/14 05:18:19;;;;;;;;;;;;;;;2.49;47.89;99085.09;4792136;29;6880;-71
2022/12/14 05:20:46;;;;;;;;;;;;;;;2.54;47.50;99079.41;4789243;29;6969;-71
2022/12/14 05:23:12;;;;;;;;;;;;;;;2.55;48.50;99078.63;4790253;29;6801;-71
2022/12/14 05:25:38;;;;;;;;;;;;;;;2.56;47.45;99073.66;4785062;29;6868;-71
2022/12/14 05:28:04;;;;;;;;;;;;;;;2.57;48.00;99067.81;4776626;29;7001;-71
2022/12/14 05:30:29;;;;;;;;;;;;;;;2.59;48.36;99067.91;4795641;29;6861;-72
2022/12/14 05:32:56;;;;;;;;;;;;;;;2.57;47.54;99065.28;4785530;29;6769;-71
2022/12/14 05:35:22;;;;;;;;;;;;;;;2.56;48.32;99063.53;4788900;29;6785;-71
2022/12/14 05:37:47;;;;;;;;;;;;;;;2.58;48.36;99071.22;4800337;29;6777;-71
2022/12/14 05:40:13;;;;;;;;;;;;;;;2.58;48.20;99066.16;4789587;29;6781;-71
2022/12/14 05:42:39;;;;;;;;;;;;;;;2.58;47.82;99058.59;4796969;29;7778;-71
2022/12/14 05:45:05;;;;;;;;;;;;;;;2.58;47.81;99061.97;4800506;29;6777;-71
2022/12/14 05:47:31;;;;;;;;;;;;;;;2.60;48.08;99062.06;4799680;29;6805;-71
2022/12/14 05:49:56;;;;;;;;;;;;;;;2.61;48.18;99056.22;4799654;29;6777;-71
2022/12/14 05:52:26;;;;;;;;;;;;;;;2.60;48.07;99057.88;4803105;29;7358;-71
2022/12/14 05:54:52;;;;;;;;;;;;;;;2.58;47.96;99056.91;4764476;29;8570;-71
2022/12/14 05:57:18;;;;;;;;;;;;;;;2.58;48.00;99061.13;4778581;29;7186;-71
2022/12/14 05:59:44;;;;;;;;;;;;;;;2.58;48.15;99061.97;4784886;29;7904;-71
2022/12/14 06:02:10;;;;;;;;;;;;;;;2.61;47.68;99063.81;4778559;29;6939;-71
2022/12/14 06:04:36;;;;;;;;;;;;;;;2.60;48.52;99060.41;4779852;29;7805;-71
2022/12/14 06:07:01;;;;;;;;;;;;;;;2.62;48.63;99060.50;4782290;29;8491;-71
2022/12/14 06:09:27;;;;;;;;;;;;;;;2.61;47.82;99062.16;4797057;29;7526;-71
2022/12/14 06:11:53;;;;;;;;;;;;;;;2.63;48.31;99060.59;4802015;29;6963;-71
2022/12/14 06:14:20;;;;;;;;;;;;;;;2.66;47.93;99066.59;4797300;29;7146;-71
2022/12/14 06:16:46;;;;;;;;;;;;;;;2.67;48.03;99065.81;4776591;29;8641;-71
2022/12/14 06:19:13;;;;;;;;;;;;;;;2.67;48.38;99069.25;4799318;29;6801;-71
2022/12/14 06:21:41;;;;;;;;;;;;;;;2.68;48.26;99067.56;4782216;29;6943;-71
2022/12/14 06:24:11;;;;;;;;;;;;;;;2.68;48.53;99067.56;4782730;29;7166;-71
2022/12/14 06:26:39;;;;;;;;;;;;;;;2.69;47.79;99069.31;4784764;29;7932;-71
2022/12/14 06:29:06;;;;;;;;;;;;;;;2.69;48.19;99069.31;4782305;29;7117;-71
2022/12/14 06:31:32;;;;;;;;;;;;;;;2.69;48.02;99067.66;4781501;29;6925;-71
2022/12/14 06:34:02;;;;;;;;;;;;;;;2.68;48.26;99070.97;4792906;29;7083;-71
2022/12/14 06:36:34;;;;;;;;;;;;;;;2.69;48.77;99071.84;4781929;29;6806;-71
2022/12/14 06:39:06;;;;;;;;;;;;;;;2.70;48.34;99063.47;4773741;29;7034;-71
2022/12/14 06:41:31;;;;;;;;;;;;;;;2.70;48.21;99066.00;4791221;29;7118;-71
2022/12/14 06:44:07;;;;;;;;;;;;;;;2.71;47.99;99067.75;4788047;29;7084;-71
2022/12/14 06:46:33;;;;;;;;;;;;;;;2.74;48.50;99073.00;4781175;29;6793;-71
2022/12/14 06:48:59;;;;;;;;;;;;;;;2.75;48.13;99067.16;4792365;29;6848;-71
2022/12/14 06:51:24;;;;;;;;;;;;;;;2.74;48.26;99067.94;4790597;29;8117;-71
2022/12/14 06:53:56;;;;;;;;;;;;;;;2.75;47.90;99072.19;4774658;29;8845;-71
2022/12/14 06:56:25;;;;;;;;;;;;;;;2.74;48.26;99075.53;4777711;29;8688;-71
2022/12/14 06:58:54;;;;;;;;;;;;;;;2.74;48.43;99081.44;4782550;29;6781;-71
2022/12/14 07:01:22;;;;;;;;;;;;;;;2.74;48.35;99080.59;4784116;29;7091;-71
2022/12/14 07:03:58;;;;;;;;;;;;;;;2.75;48.77;99077.25;4759632;29;8790;-71
2022/12/14 07:06:30;;;;;;;;;;;;;;;2.75;48.63;99070.56;4775816;29;7741;-71
2022/12/14 07:08:58;;;;;;;;;;;;;;;2.76;47.53;99072.31;4784419;29;6894;-71
2022/12/14 07:11:26;;;;;;;;;;;;;;;2.75;48.22;99075.63;4785228;29;7004;-71
2022/12/14 07:13:53;;;;;;;;;;;;;;;2.73;48.22;99071.25;4783792;29;6809;-71
2022/12/14 07:16:23;;;;;;;;;;;;;;;2.74;47.68;99070.47;4775269;29;6801;-71
2022/12/14 07:18:49;;;;;;;;;;;;;;;2.73;48.06;99071.25;4783808;29;6798;-71
2022/12/14 07:21:18;;;;;;;;;;;;;;;2.73;47.84;99061.13;4788101;29;7237;-71
2022/12/14 07:23:45;;;;;;;;;;;;;;;2.74;48.16;99060.34;4767616;29;6987;-71
2022/12/14 07:26:13;;;;;;;;;;;;;;;2.75;48.18;99060.44;4787198;29;7840;-71
2022/12/14 07:28:41;;;;;;;;;;;;;;;2.76;48.46;99064.72;4769848;29;6987;-71
2022/12/14 07:31:16;;;;;;;;;;;;;;;2.78;48.94;99069.84;4783796;29;6789;-71
2022/12/14 07:33:42;;;;;;;;;;;;;;;2.78;48.56;99064.78;4795620;29;8185;-71
2022/12/14 07:36:14;;;;;;;;;;;;;;;2.77;48.46;99058.88;4798582;29;6793;-72
2022/12/14 07:38:43;;;;;;;;;;;;;;;2.79;48.05;99061.47;4779626;29;6802;-72
2022/12/14 07:41:13;;;;;;;;;;;;;;;2.79;48.89;99061.47;4787319;29;6996;-72
2022/12/14 07:43:40;;;;;;;;;;;;;;;2.80;48.78;99067.41;4777167;29;6947;-72
2022/12/14 07:46:11;;;;;;;;;;;;;;;2.82;48.32;99071.78;4764257;29;6813;-71
2022/12/14 07:48:37;;;;;;;;;;;;;;;2.82;48.65;99069.25;4775195;29;6866;-72
2022/12/14 07:51:08;;;;;;;;;;;;;;;2.84;48.89;99065.16;4794702;29;6781;-72
2022/12/14 07:53:36;;;;;;;;;;;;;;;2.86;48.79;99070.31;4760738;29;8672;-72
2022/12/14 07:56:05;;;;;;;;;;;;;;;2.88;48.21;99076.31;4777286;29;6817;-72
2022/12/14 07:58:33;;;;;;;;;;;;;;;2.89;48.98;99071.31;4778212;29;6809;-72
2022/12/14 08:01:13;;;;;;;;;;;;;;;2.92;48.62;99076.59;4777436;29;6939;-72
2022/12/14 08:03:48;;;;;;;;;;;;;;;2.95;48.50;99072.47;4769995;29;8662;-72
2022/12/14 08:06:17;;;;;;;;;;;;;;;2.96;48.46;99076.75;4778656;29;6873;-72
2022/12/14 08:08:43;;;;;;;;;;;;;;;3.00;48.44;99076.16;4782921;29;7232;-72
2022/12/14 08:11:09;;;;;;;;;;;;;;;3.03;48.79;99072.09;4783957;29;6785;-72
2022/12/14 08:13:37;;;;;;;;;;;;;;;3.06;48.84;99068.88;4779955;29;6794;-72
2022/12/14 08:16:06;;;;;;;;;;;;;;;3.11;48.71;99064.09;4779597;29;7409;-72
2022/12/14 08:18:33;;;;;;;;;;;;;;;3.13;48.89;99063.38;4791700;29;7017;-72
2022/12/14 08:21:02;;;;;;;;;;;;;;;3.17;48.65;99064.44;4777864;29;8310;-72
2022/12/14 08:23:28;;;;;;;;;;;;;;;3.22;47.99;99063.03;4766886;29;8538;-72
2022/12/14 08:25:55;;;;;;;;;;;;;;;3.25;48.67;99058.16;4782561;29;7057;-72
2022/12/14 08:28:22;;;;;;;;;;;;;;;3.28;48.15;99060.84;4786476;29;6864;-72
2022/12/14 08:30:49;;;;;;;;;;;;;;;3.28;48.14;99060.84;4790092;29;10321;-72
2022/12/14 08:33:14;;;;;;;;;;;;;;;3.31;48.38;99067.75;4781764;29;6809;-72
2022/12/14 08:35:40;;;;;;;;;;;;;;;3.31;49.02;99077.88;4774170;29;6766;-72
2022/12/14 08:38:05;;;;;;;;;;;;;;;3.32;48.31;99079.63;4795045;29;6773;-72
2022/12/14 08:40:34;;;;;;;;;;;;;;;3.34;47.84;99085.63;4793564;29;6837;-72
2022/12/14 08:43:00;;;;;;;;;;;;;;;3.33;48.74;99077.19;4772901;29;6958;-72
2022/12/14 08:45:26;;;;;;;;;;;;;;;3.35;48.87;99081.44;4791511;29;6777;-72
2022/12/14 08:47:51;;;;;;;;;;;;;;;3.37;48.70;99079.88;4756225;29;6966;-72
2022/12/14 08:50:17;;;;;;;;;;;;;;;3.38;47.84;99082.50;4777438;29;7198;-72
2022/12/14 08:52:47;;;;;;;;;;;;;;;3.38;48.01;99079.97;4778418;29;7073;-72
2022/12/14 08:55:13;;;;;;;;;;;;;;;3.38;48.52;99082.50;4794762;29;7101;-72
2022/12/14 08:57:38;;;;;;;;;;;;;;;3.41;47.80;99081.78;4801540;29;6773;-72
2022/12/14 09:00:05;;;;;;;;;;;;;;;3.44;48.58;99085.34;4794850;29;7301;-72
2022/12/14 09:02:31;;;;;;;;;;;;;;;3.52;48.02;99084.91;4775711;29;6996;-72
2022/12/14 09:04:56;;;;;;;;;;;;;;;3.61;48.98;99095.56;4786848;29;7831;-72
2022/12/14 09:07:22;;;;;;;;;;;;;;;3.72;48.35;99091.94;4799224;29;7721;-72
2022/12/14 09:09:48;;;;;;;;;;;;;;;3.83;48.46;99100.13;4798595;29;7294;-72
2022/12/14 09:12:13;;;;;;;;;;;;;;;3.93;48.30;99095.56;4791452;29;7076;-72
2022/12/14 09:14:39;;;;;;;;;;;;;;;3.97;48.08;99105.94;4800632;29;6860;-72
2022/12/14 09:17:04;;;;;;;;;;;;;;;4.02;47.84;99096.91;4781486;29;6999;-72
2022/12/14 09:19:30;;;;;;;;;;;;;;;4.11;48.47;99100.72;4793837;29;6796;-72
2022/12/14 09:21:56;;;;;;;;;;;;;;;4.16;48.06;99100.16;4797096;29;6793;-72
2022/12/14 09:24:23;;;;;;;;;;;;;;;4.22;47.37;99102.16;4802205;29;7309;-72
2022/12/14 09:26:50;;;;;;;;;;;;;;;4.26;47.73;99104.06;4797768;29;7216;-72
2022/12/14 09:29:17;;;;;;;;;;;;;;;4.30;46.92;99098.34;4785669;29;6982;-72
2022/12/14 09:31:43;;;;;;;;;;;;;;;4.36;46.72;99096.94;4761741;29;7020;-72
2022/12/14 09:34:09;;;;;;;;;;;;;;;4.42;47.15;99097.25;4786551;29;6988;-72
2022/12/14 09:36:35;;;;;;;;;;;;;;;4.47;46.64;99105.09;4793249;29;6805;-72
2022/12/14 09:39:02;;;;;;;;;;;;;;;4.48;46.47;99105.19;4797896;29;7277;-72
2022/12/14 09:41:34;;;;;;;;;;;;;;;4.46;46.55;99104.25;4779252;29;6805;-72
2022/12/14 09:44:37;;;;;;;;;;;;;;;4.42;46.05;99107.38;4790613;29;7231;-72
2022/12/14 09:47:17;;;;;;;;;;;;;;;4.39;46.96;99115.72;4796775;29;7044;-72
2022/12/14 09:49:59;;;;;;;;;;;;;;;4.38;46.28;99108.03;4780031;29;7312;-72
2022/12/14 09:52:48;;;;;;;;;;;;;;;4.35;46.58;99110.44;4764868;29;7019;-72
2022/12/14 09:55:32;;;;;;;;;;;;;;;4.31;46.10;99115.31;4797213;29;6801;-72
2022/12/14 09:58:19;;;;;;;;;;;;;;;4.28;46.51;99119.34;4787077;29;6861;-72
2022/12/14 10:01:09;;;;;;;;;;;;;;;4.20;46.10;99113.88;4761469;29;6970;-72
2022/12/14 10:03:56;;;;;;;;;;;;;;;4.12;45.79;99110.97;4786656;29;7436;-72
2022/12/14 10:06:40;;;;;;;;;;;;;;;4.07;46.29;99114.03;4791058;29;7111;-72
2022/12/14 10:09:37;;;;;;;;;;;;;;;4.00;45.54;99118.78;4780937;29;7274;-72
2022/12/14 10:12:25;;;;;;;;;;;;;;;3.95;46.00;99130.31;4800506;29;6900;-72
2022/12/14 10:15:21;;;;;;;;;;;;;;;3.91;46.23;99135.13;4787536;29;6821;-72
2022/12/14 10:17:58;;;;;;;;;;;;;;;3.89;46.11;99135.06;4795182;29;7303;-72
2022/12/14 10:20:49;;;;;;;;;;;;;;;3.89;46.92;99141.00;4788225;29;7032;-72
2022/12/14 10:23:23;;;;;;;;;;;;;;;3.94;46.69;99143.78;4795581;29;7004;-72
2022/12/14 10:26:02;;;;;;;;;;;;;;;4.01;46.46;99139.94;4779716;29;6841;-72
2022/12/14 10:28:56;;;;;;;;;;;;;;;4.10;46.87;99131.94;4765210;29;7911;-72
2022/12/14 10:31:37;;;;;;;;;;;;;;;4.21;47.09;99133.38;4798068;29;6869;-72
2022/12/14 10:34:21;;;;;;;;;;;;;;;4.34;46.14;99128.94;4784261;29;7098;-72
2022/12/14 10:37:02;;;;;;;;;;;;;;;4.50;46.49;99131.50;4770066;29;8812;-72
2022/12/14 10:40:05;;;;;;;;;;;;;;;4.68;46.51;99123.09;4774166;29;6825;-72
2022/12/14 10:43:22;;;;;;;;;;;;;;;4.80;46.03;99131.31;4787578;29;7159;-72
2022/12/14 10:46:03;;;;;;;;;;;;;;;4.92;46.17;99126.00;4790179;29;6884;-72
2022/12/14 10:48:38;;;;;;;;;;;;;;;5.08;45.99;99127.63;4793131;29;7896;-72
2022/12/14 10:51:14;;;;;;;;;;;;;;;5.26;46.35;99126.78;4783158;29;7744;-72
2022/12/14 10:53:54;;;;;;;;;;;;;;;5.50;46.13;99119.47;4786859;29;6878;-72
2022/12/14 10:56:30;;;;;;;;;;;;;;;5.96;45.23;99123.28;4788512;29;6894;-72
2022/12/14 10:59:19;;;;;;;;;;;;;;;6.51;44.92;99113.88;4779331;29;6844;-73
2022/12/14 11:02:05;;;;;;;;;;;;;;;6.98;43.53;99110.75;4791335;29;7320;-73
2022/12/14 11:04:32;;;;;;;;;;;;;;;7.36;43.12;99106.34;4782353;29;7732;-72
2022/12/14 11:07:03;;;;;;;;;;;;;;;7.67;43.12;99109.22;4791382;29;8989;-72
2022/12/14 11:09:29;;;;;;;;;;;;;;;7.93;42.20;99096.59;4778342;29;6805;-73
2022/12/14 11:12:16;;;;;;;;;;;;;;;8.31;42.00;99096.31;4765874;29;7094;-73
2022/12/14 11:15:05;;;;;;;;;;;;;;;8.85;41.09;99095.66;4786394;29;6813;-73
2022/12/14 11:17:40;;;;;;;;;;;;;;;9.36;41.90;99095.56;4770342;29;6829;-73
2022/12/14 11:20:24;;;;;;;;;;;;;;;9.77;40.75;99092.56;4776781;29;7553;-73
2022/12/14 11:22:52;;;;;;;;;;;;;;;10.12;40.29;99091.03;4790286;29;7013;-73
2022/12/14 11:25:39;;;;;;;;;;;;;;;10.54;39.67;99083.69;4797059;29;7918;-73
2022/12/14 11:28:39;;;;;;;;;;;;;;;10.90;39.16;99082.03;4801307;29;7158;-73
2022/12/14 11:31:39;;;;;;;;;;;;;;;11.26;38.79;99083.78;4787388;29;8381;-73
2022/12/14 11:34:38;;;;;;;;;;;;;;;11.55;38.29;99081.03;4795765;29;6945;-73
2022/12/14 11:37:30;;;;;;;;;;;;;;;11.96;37.57;99077.63;4780895;29;7757;-73
2022/12/14 11:40:04;;;;;;;;;;;;;;;12.30;37.49;99074.91;4787011;29;7083;-73
2022/12/14 11:42:30;;;;;;;;;;;;;;;12.58;36.75;99067.72;4776211;29;7347;-73
2022/12/14 11:45:24;;;;;;;;;;;;;;;12.82;35.77;99069.88;4777741;29;6881;-73
2022/12/14 11:48:15;;;;;;;;;;;;;;;12.86;35.71;99071.69;4791387;29;6802;-73
2022/12/14 11:50:43;;;;;;;;;;;;;;;12.90;35.53;99070.03;4797255;29;6809;-73
2022/12/14 11:53:16;;;;;;;;;;;;;;;12.99;35.14;99066.72;4753339;29;7270;-73
2022/12/14 11:55:56;;;;;;;;;;;;;;;13.18;34.67;99063.63;4778798;29;6992;-73
2022/12/14 11:58:45;;;;;;;;;;;;;;;13.45;34.40;99058.91;4777965;29;6809;-73
2022/12/14 12:01:17;;;;;;;;;;;;;;;13.65;34.15;99056.63;4775122;29;9583;-73
2022/12/14 12:03:51;;;;;;;;;;;;;;;13.29;33.92;99058.66;4786587;29;6938;-73
2022/12/14 12:06:24;;;;;;;;;;;;;;;12.46;34.12;99065.81;4775925;29;6845;-73
2022/12/14 12:09:01;;;;;;;;;;;;;;;11.53;35.38;99065.59;4775497;29;6997;-73
2022/12/14 12:11:32;;;;;;;;;;;;;;;10.73;35.79;99079.06;4780234;29;6813;-73
2022/12/14 12:14:37;;;;;;;;;;;;;;;9.89;36.65;99079.28;4793026;29;6880;-73
2022/12/14 12:17:34;;;;;;;;;;;;;;;9.16;37.08;99080.44;4782512;29;6813;-72
2022/12/14 12:20:01;;;;;;;;;;;;;;;8.59;36.99;99094.72;4784253;29;8064;-73
2022/12/14 12:22:30;;;;;;;;;;;;;;;8.05;36.89;99096.22;4791521;29;7655;-72
2022/12/14 12:25:04;;;;;;;;;;;;;;;7.56;37.51;99116.47;4768638;29;6829;-72
2022/12/14 12:27:32;;;;;;;;;;;;;;;7.12;37.65;99105.34;4788346;29;6829;-72
2022/12/14 12:30:17;;;;;;;;;;;;;;;6.78;38.16;99105.69;4781725;29;9023;-72
2022/12/14 12:32:50;;;;;;;;;;;;;;;6.53;38.43;99111.41;4780817;29;11291;-72
2022/12/14 12:35:31;;;;;;;;;;;;;;;6.34;38.98;99112.28;4784324;29;7938;-72
2022/12/14 12:38:20;;;;;;;;;;;;;;;6.15;38.91;99111.44;4807065;29;6837;-72
2022/12/14 12:41:04;;;;;;;;;;;;;;;5.95;39.22;99110.53;4807374;29;8480;-72
2022/12/14 12:43:53;;;;;;;;;;;;;;;5.80;39.11;99111.56;4799265;29;6805;-72
2022/12/14 12:46:32;;;;;;;;;;;;;;;5.69;39.24;99113.56;4785211;29;6813;-72
2022/12/14 12:49:05;;;;;;;;;;;;;;;5.60;39.27;99108.09;4790700;29;6979;-72
2022/12/14 12:51:48;;;;;;;;;;;;;;;5.53;39.28;99116.22;4763227;29;7049;-72
2022/12/14 12:54:29;;;;;;;;;;;;;;;5.45;39.63;99118.38;4785816;29;6961;-72
2022/12/14 12:56:59;;;;;;;;;;;;;;;5.36;39.17;99120.47;4769221;29;8479;-72
2022/12/14 12:59:38;;;;;;;;;;;;;;;5.29;39.30;99119.31;4789064;29;6809;-72
2022/12/14 13:02:47;;;;;;;;;;;;;;;5.22;39.07;99127.47;4786422;29;6813;-72
2022/12/14 13:05:18;;;;;;;;;;;;;;;5.17;39.88;99123.81;4741882;30;6950;-72
2022/12/14 13:07:56;;;;;;;;;;;;;;;5.13;39.87;99131.28;4782239;29;6869;-72
2022/12/14 13:10:29;;;;;;;;;;;;;;;5.09;39.25;99133.59;4801151;29;6797;-72
2022/12/14 13:13:08;;;;;;;;;;;;;;;5.05;39.56;99131.69;4788689;29;6801;-72
2022/12/14 13:15:49;;;;;;;;;;;;;;;4.98;39.99;99131.41;4778865;29;6813;-72
2022/12/14 13:18:35;;;;;;;;;;;;;;;4.92;39.98;99133.63;4780422;29;7026;-72
2022/12/14 13:21:26;;;;;;;;;;;;;;;4.89;39.86;99132.59;4783812;29;6817;-72
2022/12/14 13:23:52;;;;;;;;;;;;;;;4.85;39.33;99137.53;4786224;29;6900;-72
2022/12/14 13:27:16;;;;;;;;;;;;;;;4.84;39.55;99143.41;4793262;29;7129;-72
2022/12/14 13:30:04;;;;;;;;;;;;;;;4.79;39.80;99138.88;4788292;29;8915;-72
2022/12/14 13:33:17;;;;;;;;;;;;;;;4.76;40.63;99142.13;4780060;29;7679;-72
2022/12/14 13:36:07;;;;;;;;;;;;;;;4.73;39.86;99144.50;4793329;29;7915;-72
2022/12/14 13:38:56;;;;;;;;;;;;;;;4.69;40.67;99133.34;4803603;29;6813;-72
2022/12/14 13:41:47;;;;;;;;;;;;;;;4.68;40.72;99138.31;4779245;29;7184;-72
2022/12/14 13:44:25;;;;;;;;;;;;;;;4.66;40.06;99132.31;4785592;29;6833;-72
2022/12/14 13:47:04;;;;;;;;;;;;;;;4.64;40.02;99129.69;4788073;29;6807;-72
2022/12/14 13:49:32;;;;;;;;;;;;;;;4.62;40.51;99135.47;4771159;29;7377;-72
2022/12/14 13:51:59;;;;;;;;;;;;;;;4.62;40.05;99149.03;4784293;29;8664;-72
2022/12/14 13:54:33;;;;;;;;;;;;;;;4.59;40.11;99136.19;4805840;29;6950;-72
2022/12/14 13:57:13;;;;;;;;;;;;;;;4.57;40.29;99142.84;4801823;29;6965;-72
2022/12/14 13:59:50;;;;;;;;;;;;;;;4.55;40.70;99144.44;4784766;29;7407;-72
2022/12/14 14:02:31;;;;;;;;;;;;;;;4.52;40.09;99142.59;4802800;29;6823;-72
2022/12/14 14:05:15;;;;;;;;;;;;;;;4.49;40.12;99155.13;4799826;29;8604;-72